Wes Sellars — WDF9302 — position and weather

sailwx.info

Track history (hours):
 
Tides and Currents Weather Stations Pressure Air Temp Water Temp Dewpoint Dewpoint Depression Visibility Wind Speed Wind Dir Waves Ship Positions

Wes Sellars

Owner: Florida Marine, LLC, Mandeville, LA. More information available from US FCC via Universal Licensing System and Coast Guard Vessel Documentation Center.

Last reported at 2016-Jun-26 00:05 UTC. Time now 2016-Jun-26 08:21 UTC.
Position N 29°45' W 095°11'.

Length 27 m.

Type: Towing. MMSI: 367503760.

Date/timePositionNaut miles runAvg speedWind from/ knotsBaromVisibWave heightAir tempDewpointWater temp
2016-Jun-26 00:05N 29°45' W 095°11'3 6.2
2016-Jun-25 23:33N 29°44' W 095°07'4 4.0
2016-Jun-25 22:33N 29°47' W 095°04'1 0.1
2016-Jun-25 02:16N 29°47' W 095°05'1 0.4
2016-Jun-25 00:33N 29°46' W 095°05'4 4.0
2016-Jun-24 23:33N 29°43' W 095°01'4 4.3
2016-Jun-24 22:33N 29°40' W 094°58'5 4.8
2016-Jun-24 21:33N 29°35' W 094°56'5 5.2
2016-Jun-24 20:33N 29°31' W 094°53'27 3.3
2016-Jun-24 12:32N 29°36' W 094°23'5 4.7
2016-Jun-24 11:32N 29°38' W 094°18'5 4.9
2016-Jun-24 10:32N 29°40' W 094°13'5 4.7
2016-Jun-24 09:32N 29°42' W 094°08'10 4.4
2016-Jun-24 07:14N 29°49' W 093°59'12 4.4
2016-Jun-24 04:33N 29°58' W 093°51'4 4.2
2016-Jun-24 03:31N 30°00' W 093°46'6 5.7
2016-Jun-24 02:33N 30°04' W 093°41'5 5.2
2016-Jun-24 01:33N 30°04' W 093°35'5 4.7
2016-Jun-24 00:33N 30°04' W 093°30'5 4.9
2016-Jun-23 23:33N 30°04' W 093°24'4 3.7
2016-Jun-23 22:33N 30°05' W 093°20'2 1.6
2016-Jun-23 21:33N 30°06' W 093°19'0 0.1
2016-Jun-23 20:33N 30°06' W 093°19'2 2.1
2016-Jun-23 19:33N 30°08' W 093°20'0 0.4
2016-Jun-23 18:33N 30°08' W 093°19'0 0.0
2016-Jun-23 17:33N 30°08' W 093°19'0 0.0
2016-Jun-23 16:33N 30°08' W 093°19'0 0.0
2016-Jun-23 15:33N 30°08' W 093°19'0 0.0
2016-Jun-23 14:33N 30°08' W 093°19'0 0.0
2016-Jun-23 13:33N 30°08' W 093°19'0 0.0
2016-Jun-23 12:33N 30°08' W 093°19'0 0.0
2016-Jun-23 11:33N 30°08' W 093°19'0 0.0
2016-Jun-23 10:33N 30°08' W 093°19'0 0.0
2016-Jun-23 09:33N 30°08' W 093°19'0 0.0
2016-Jun-23 08:33N 30°08' W 093°19'0 0.0
2016-Jun-23 07:33N 30°08' W 093°19'0 0.0
2016-Jun-23 05:33N 30°08' W 093°19'4 3.7
2016-Jun-23 04:33N 30°05' W 093°20'6 6.2
2016-Jun-23 03:33N 30°04' W 093°27'6 6.3
2016-Jun-23 02:33N 30°04' W 093°35'5 5.3
2016-Jun-23 01:33N 30°04' W 093°41'5 5.4
2016-Jun-23 00:33N 30°00' W 093°46'6 5.6
2016-Jun-22 23:33N 29°58' W 093°51'6 5.7
2016-Jun-22 22:32N 29°53' W 093°55'5 5.4
2016-Jun-22 21:32N 29°49' W 093°60'6 6.0
2016-Jun-22 20:32N 29°45' W 094°05'36 4.0
2016-Jun-22 11:26N 29°27' W 094°41'6 6.4
2016-Jun-22 10:28N 29°23' W 094°46'5 6.0
2016-Jun-22 09:33N 29°27' W 094°51'9 8.7
2016-Jun-22 08:33N 29°34' W 094°56'9 9.0
2016-Jun-22 07:33N 29°42' W 095°01'5 5.2
2016-Jun-22 06:34N 29°45' W 095°06'0 0.0
2016-Jun-22 05:33N 29°45' W 095°06'0 0.0
2016-Jun-22 04:33N 29°45' W 095°06'0 0.0
2016-Jun-22 03:33N 29°45' W 095°06'0 0.0
2016-Jun-22 02:33N 29°45' W 095°06'0 0.0
2016-Jun-22 01:33N 29°45' W 095°06'0 0.0
2016-Jun-22 00:33N 29°45' W 095°06'0 0.0
2016-Jun-21 23:33N 29°45' W 095°06'0 0.0
2016-Jun-21 22:33N 29°45' W 095°06'0 0.0
2016-Jun-21 21:33N 29°45' W 095°06'0 0.0
2016-Jun-21 20:33N 29°45' W 095°06'0 0.0
2016-Jun-21 19:33N 29°45' W 095°06'0 0.0
2016-Jun-21 18:33N 29°45' W 095°06'0 0.0
2016-Jun-21 17:33N 29°45' W 095°06'0 0.0
2016-Jun-21 16:33N 29°45' W 095°06'0 0.0
2016-Jun-21 15:33N 29°45' W 095°06'0 0.0
2016-Jun-21 14:33N 29°45' W 095°06'0 0.0
2016-Jun-21 13:33N 29°45' W 095°06'0 0.0
2016-Jun-21 12:33N 29°45' W 095°06'0 0.0
2016-Jun-21 11:31N 29°45' W 095°06'0 0.0
2016-Jun-21 10:33N 29°45' W 095°06'0 0.0
2016-Jun-21 09:33N 29°45' W 095°06'0 0.0
2016-Jun-21 08:33N 29°45' W 095°06'0 0.0
2016-Jun-21 07:33N 29°45' W 095°06'0 0.0
2016-Jun-21 05:33N 29°45' W 095°06'0 0.0
2016-Jun-21 04:33N 29°45' W 095°06'0 0.0
2016-Jun-21 03:33N 29°45' W 095°06'0 0.0
2016-Jun-21 02:33N 29°45' W 095°06'0 0.0
2016-Jun-21 01:33N 29°45' W 095°06'0 0.0
2016-Jun-21 00:33N 29°45' W 095°06'0 0.0
2016-Jun-20 23:33N 29°45' W 095°06'0 0.0
2016-Jun-20 22:32N 29°45' W 095°06'2 2.4
2016-Jun-20 21:33N 29°47' W 095°05'0 0.0
2016-Jun-19 18:09N 29°47' W 095°05'1 0.1
2016-Jun-19 08:33N 29°46' W 095°05'6 5.6
2016-Jun-19 07:27N 29°44' W 095°12'2 0.1
2016-Jun-18 06:18N 29°45' W 095°10'5 6.5
2016-Jun-18 05:32N 29°46' W 095°05'1 1.3
2016-Jun-18 04:32N 29°47' W 095°04'0 0.0
2016-Jun-18 03:33N 29°47' W 095°04'0 0.0
2016-Jun-18 02:33N 29°47' W 095°04'1 0.8
2016-Jun-18 01:33N 29°47' W 095°04'2 1.0
2016-Jun-18 00:04N 29°46' W 095°06'1 2.0
2016-Jun-17 23:33N 29°46' W 095°05'1 1.3
2016-Jun-17 22:33N 29°47' W 095°05'1 1.0
2016-Jun-17 21:32N 29°47' W 095°04'2 0.1
2016-Jun-17 03:33N 29°46' W 095°06'0 0.0
2016-Jun-17 02:25N 29°46' W 095°06'0 0.0
2016-Jun-17 01:33N 29°46' W 095°06'0 0.0
2016-Jun-17 00:17N 29°46' W 095°06'0 0.0
2016-Jun-16 23:31N 29°46' W 095°06'2 0.6
2016-Jun-16 19:33N 29°45' W 095°04'2 2.4
2016-Jun-16 18:33N 29°44' W 095°01'5 0.7
2016-Jun-16 11:32N 29°46' W 095°06'  
Track history (hours):
 
Tides and Currents Weather Stations Pressure Air Temp Water Temp Dewpoint Dewpoint Depression Visibility Wind Speed Wind Dir Waves Ship Positions

Wes Sellars

Owner: Florida Marine, LLC, Mandeville, LA. More information available from US FCC via Universal Licensing System and Coast Guard Vessel Documentation Center.

Last reported at 2016-Jun-26 00:05 UTC. Time now 2016-Jun-26 08:21 UTC.
Position N 29°45' W 095°11'.

Length 27 m.

Type: Towing. MMSI: 367503760.

Date/timePositionNaut miles runAvg speedWind from/ knotsBaromVisibWave heightAir tempDewpointWater temp
2016-Jun-26 00:05N 29°45' W 095°11'3 6.2
2016-Jun-25 23:33N 29°44' W 095°07'4 4.0
2016-Jun-25 22:33N 29°47' W 095°04'1 0.1
2016-Jun-25 02:16N 29°47' W 095°05'1 0.4
2016-Jun-25 00:33N 29°46' W 095°05'4 4.0
2016-Jun-24 23:33N 29°43' W 095°01'4 4.3
2016-Jun-24 22:33N 29°40' W 094°58'5 4.8
2016-Jun-24 21:33N 29°35' W 094°56'5 5.2
2016-Jun-24 20:33N 29°31' W 094°53'27 3.3
2016-Jun-24 12:32N 29°36' W 094°23'5 4.7
2016-Jun-24 11:32N 29°38' W 094°18'5 4.9
2016-Jun-24 10:32N 29°40' W 094°13'5 4.7
2016-Jun-24 09:32N 29°42' W 094°08'10 4.4
2016-Jun-24 07:14N 29°49' W 093°59'12 4.4
2016-Jun-24 04:33N 29°58' W 093°51'4 4.2
2016-Jun-24 03:31N 30°00' W 093°46'6 5.7
2016-Jun-24 02:33N 30°04' W 093°41'5 5.2
2016-Jun-24 01:33N 30°04' W 093°35'5 4.7
2016-Jun-24 00:33N 30°04' W 093°30'5 4.9
2016-Jun-23 23:33N 30°04' W 093°24'4 3.7
2016-Jun-23 22:33N 30°05' W 093°20'2 1.6
2016-Jun-23 21:33N 30°06' W 093°19'0 0.1
2016-Jun-23 20:33N 30°06' W 093°19'2 2.1
2016-Jun-23 19:33N 30°08' W 093°20'0 0.4
2016-Jun-23 18:33N 30°08' W 093°19'0 0.0
2016-Jun-23 17:33N 30°08' W 093°19'0 0.0
2016-Jun-23 16:33N 30°08' W 093°19'0 0.0
2016-Jun-23 15:33N 30°08' W 093°19'0 0.0
2016-Jun-23 14:33N 30°08' W 093°19'0 0.0
2016-Jun-23 13:33N 30°08' W 093°19'0 0.0
2016-Jun-23 12:33N 30°08' W 093°19'0 0.0
2016-Jun-23 11:33N 30°08' W 093°19'0 0.0
2016-Jun-23 10:33N 30°08' W 093°19'0 0.0
2016-Jun-23 09:33N 30°08' W 093°19'0 0.0
2016-Jun-23 08:33N 30°08' W 093°19'0 0.0
2016-Jun-23 07:33N 30°08' W 093°19'0 0.0
2016-Jun-23 05:33N 30°08' W 093°19'4 3.7
2016-Jun-23 04:33N 30°05' W 093°20'6 6.2
2016-Jun-23 03:33N 30°04' W 093°27'6 6.3
2016-Jun-23 02:33N 30°04' W 093°35'5 5.3
2016-Jun-23 01:33N 30°04' W 093°41'5 5.4
2016-Jun-23 00:33N 30°00' W 093°46'6 5.6
2016-Jun-22 23:33N 29°58' W 093°51'6 5.7
2016-Jun-22 22:32N 29°53' W 093°55'5 5.4
2016-Jun-22 21:32N 29°49' W 093°60'6 6.0
2016-Jun-22 20:32N 29°45' W 094°05'36 4.0
2016-Jun-22 11:26N 29°27' W 094°41'6 6.4
2016-Jun-22 10:28N 29°23' W 094°46'5 6.0
2016-Jun-22 09:33N 29°27' W 094°51'9 8.7
2016-Jun-22 08:33N 29°34' W 094°56'9 9.0
2016-Jun-22 07:33N 29°42' W 095°01'5 5.2
2016-Jun-22 06:34N 29°45' W 095°06'0 0.0
2016-Jun-22 05:33N 29°45' W 095°06'0 0.0
2016-Jun-22 04:33N 29°45' W 095°06'0 0.0
2016-Jun-22 03:33N 29°45' W 095°06'0 0.0
2016-Jun-22 02:33N 29°45' W 095°06'0 0.0
2016-Jun-22 01:33N 29°45' W 095°06'0 0.0
2016-Jun-22 00:33N 29°45' W 095°06'0 0.0
2016-Jun-21 23:33N 29°45' W 095°06'0 0.0
2016-Jun-21 22:33N 29°45' W 095°06'0 0.0
2016-Jun-21 21:33N 29°45' W 095°06'0 0.0
2016-Jun-21 20:33N 29°45' W 095°06'0 0.0
2016-Jun-21 19:33N 29°45' W 095°06'0 0.0
2016-Jun-21 18:33N 29°45' W 095°06'0 0.0
2016-Jun-21 17:33N 29°45' W 095°06'0 0.0
2016-Jun-21 16:33N 29°45' W 095°06'0 0.0
2016-Jun-21 15:33N 29°45' W 095°06'0 0.0
2016-Jun-21 14:33N 29°45' W 095°06'0 0.0
2016-Jun-21 13:33N 29°45' W 095°06'0 0.0
2016-Jun-21 12:33N 29°45' W 095°06'0 0.0
2016-Jun-21 11:31N 29°45' W 095°06'0 0.0
2016-Jun-21 10:33N 29°45' W 095°06'0 0.0
2016-Jun-21 09:33N 29°45' W 095°06'0 0.0
2016-Jun-21 08:33N 29°45' W 095°06'0 0.0
2016-Jun-21 07:33N 29°45' W 095°06'0 0.0
2016-Jun-21 05:33N 29°45' W 095°06'0 0.0
2016-Jun-21 04:33N 29°45' W 095°06'0 0.0
2016-Jun-21 03:33N 29°45' W 095°06'0 0.0
2016-Jun-21 02:33N 29°45' W 095°06'0 0.0
2016-Jun-21 01:33N 29°45' W 095°06'0 0.0
2016-Jun-21 00:33N 29°45' W 095°06'0 0.0
2016-Jun-20 23:33N 29°45' W 095°06'0 0.0
2016-Jun-20 22:32N 29°45' W 095°06'2 2.4
2016-Jun-20 21:33N 29°47' W 095°05'0 0.0
2016-Jun-19 18:09N 29°47' W 095°05'1 0.1
2016-Jun-19 08:33N 29°46' W 095°05'6 5.6
2016-Jun-19 07:27N 29°44' W 095°12'2 0.1
2016-Jun-18 06:18N 29°45' W 095°10'5 6.5
2016-Jun-18 05:32N 29°46' W 095°05'1 1.3
2016-Jun-18 04:32N 29°47' W 095°04'0 0.0
2016-Jun-18 03:33N 29°47' W 095°04'0 0.0
2016-Jun-18 02:33N 29°47' W 095°04'1 0.8
2016-Jun-18 01:33N 29°47' W 095°04'2 1.0
2016-Jun-18 00:04N 29°46' W 095°06'1 2.0
2016-Jun-17 23:33N 29°46' W 095°05'1 1.3
2016-Jun-17 22:33N 29°47' W 095°05'1 1.0
2016-Jun-17 21:32N 29°47' W 095°04'2 0.1
2016-Jun-17 03:33N 29°46' W 095°06'0 0.0
2016-Jun-17 02:25N 29°46' W 095°06'0 0.0
2016-Jun-17 01:33N 29°46' W 095°06'0 0.0
2016-Jun-17 00:17N 29°46' W 095°06'0 0.0
2016-Jun-16 23:31N 29°46' W 095°06'2 0.6
2016-Jun-16 19:33N 29°45' W 095°04'2 2.4
2016-Jun-16 18:33N 29°44' W 095°01'5 0.7
2016-Jun-16 11:32N 29°46' W 095°06'  

Dump ship's entire track history